Espanola, Washington
Current Conditions -  °F | °C
As of 5:58 PM on Monday 20 Oct 2014 (Local Time) from KSKA Reporting Station
Overcast Overcast  
Wind Chill: 62°   Ceiling: 11000
Heat Index: 62°   Visibility: 10mi
Dew Point: 46°   Wind: 6mph
Humidity: 56%   Direction: 210°SSW
Pressure: 29.74"   Gusts: NA
Location:  47.6094°N, 117.705°W
Report Text: KSKA 210058Z AUTO 21005KT 10SM OVC110 17/08 A2974 RMK AO2 SLP072 T01660079
Loading
Personal Weather Stations






























Interactive Weather Map
Tropical Storm Tracking
New forecast layout! Learn more

10-Day Weather Forecast

Advertisements
Track Severe Weather on mobile